sensor_id;sensor_type;location;lat;lon;timestamp;P1;durP1;ratioP1;P2;durP2;ratioP2
5225;SDS011;2632;51.666;7.146;2022-11-20T00:01:25;1.90;;;1.70;;
5225;SDS011;2632;51.666;7.146;2022-11-20T00:03:53;3.00;;;1.80;;
5225;SDS011;2632;51.666;7.146;2022-11-20T00:06:20;3.47;;;1.93;;
5225;SDS011;2632;51.666;7.146;2022-11-20T00:08:50;3.27;;;2.10;;
5225;SDS011;2632;51.666;7.146;2022-11-20T00:11:17;1.80;;;1.70;;
5225;SDS011;2632;51.666;7.146;2022-11-20T00:13:47;2.03;;;1.70;;
5225;SDS011;2632;51.666;7.146;2022-11-20T00:16:17;2.37;;;2.00;;
5225;SDS011;2632;51.666;7.146;2022-11-20T00:18:45;3.50;;;1.90;;
5225;SDS011;2632;51.666;7.146;2022-11-20T00:21:13;2.10;;;1.90;;
5225;SDS011;2632;51.666;7.146;2022-11-20T00:23:47;2.30;;;2.10;;
5225;SDS011;2632;51.666;7.146;2022-11-20T00:26:16;2.47;;;1.87;;
5225;SDS011;2632;51.666;7.146;2022-11-20T00:28:44;2.90;;;2.30;;
5225;SDS011;2632;51.666;7.146;2022-11-20T00:31:19;3.07;;;1.93;;
5225;SDS011;2632;51.666;7.146;2022-11-20T00:33:46;2.60;;;2.03;;
5225;SDS011;2632;51.666;7.146;2022-11-20T00:36:13;2.33;;;2.10;;
5225;SDS011;2632;51.666;7.146;2022-11-20T00:38:41;2.13;;;1.93;;
5225;SDS011;2632;51.666;7.146;2022-11-20T00:41:09;2.60;;;1.57;;
5225;SDS011;2632;51.666;7.146;2022-11-20T00:43:38;2.37;;;1.93;;
5225;SDS011;2632;51.666;7.146;2022-11-20T00:46:24;2.67;;;1.73;;
5225;SDS011;2632;51.666;7.146;2022-11-20T00:48:52;3.27;;;2.13;;
5225;SDS011;2632;51.666;7.146;2022-11-20T00:51:20;2.77;;;1.83;;
5225;SDS011;2632;51.666;7.146;2022-11-20T00:53:48;2.40;;;2.20;;
5225;SDS011;2632;51.666;7.146;2022-11-20T00:56:16;3.20;;;2.10;;
5225;SDS011;2632;51.666;7.146;2022-11-20T00:58:45;2.17;;;1.80;;
5225;SDS011;2632;51.666;7.146;2022-11-20T01:03:43;3.40;;;1.97;;
5225;SDS011;2632;51.666;7.146;2022-11-20T01:08:38;1.83;;;1.73;;
5225;SDS011;2632;51.666;7.146;2022-11-20T01:11:06;3.10;;;2.10;;
5225;SDS011;2632;51.666;7.146;2022-11-20T01:13:35;1.83;;;1.50;;
5225;SDS011;2632;51.666;7.146;2022-11-20T01:16:12;2.30;;;2.10;;
5225;SDS011;2632;51.666;7.146;2022-11-20T01:18:42;2.10;;;1.80;;
5225;SDS011;2632;51.666;7.146;2022-11-20T01:21:11;3.30;;;2.20;;
5225;SDS011;2632;51.666;7.146;2022-11-20T01:23:40;2.17;;;1.97;;
5225;SDS011;2632;51.666;7.146;2022-11-20T01:26:09;2.30;;;2.10;;
5225;SDS011;2632;51.666;7.146;2022-11-20T01:28:38;1.87;;;1.70;;
5225;SDS011;2632;51.666;7.146;2022-11-20T01:31:16;1.97;;;1.77;;
5225;SDS011;2632;51.666;7.146;2022-11-20T01:33:43;3.37;;;2.10;;
5225;SDS011;2632;51.666;7.146;2022-11-20T01:36:11;2.23;;;2.03;;
5225;SDS011;2632;51.666;7.146;2022-11-20T01:38:38;2.40;;;2.20;;
5225;SDS011;2632;51.666;7.146;2022-11-20T01:41:05;1.87;;;1.70;;
5225;SDS011;2632;51.666;7.146;2022-11-20T01:43:33;2.20;;;2.00;;
5225;SDS011;2632;51.666;7.146;2022-11-20T01:46:13;3.07;;;2.30;;
5225;SDS011;2632;51.666;7.146;2022-11-20T01:51:29;2.60;;;2.20;;
5225;SDS011;2632;51.666;7.146;2022-11-20T01:54:12;2.40;;;2.10;;
5225;SDS011;2632;51.666;7.146;2022-11-20T01:56:43;2.60;;;2.20;;
5225;SDS011;2632;51.666;7.146;2022-11-20T01:59:12;2.87;;;2.10;;
5225;SDS011;2632;51.666;7.146;2022-11-20T02:01:41;3.17;;;2.30;;
5225;SDS011;2632;51.666;7.146;2022-11-20T02:04:08;2.50;;;1.80;;
5225;SDS011;2632;51.666;7.146;2022-11-20T02:06:36;3.20;;;2.50;;
5225;SDS011;2632;51.666;7.146;2022-11-20T02:09:08;2.60;;;2.07;;
5225;SDS011;2632;51.666;7.146;2022-11-20T02:11:34;2.77;;;2.10;;
5225;SDS011;2632;51.666;7.146;2022-11-20T02:14:01;2.10;;;1.80;;
5225;SDS011;2632;51.666;7.146;2022-11-20T02:16:33;2.50;;;2.03;;
5225;SDS011;2632;51.666;7.146;2022-11-20T02:19:04;2.33;;;2.13;;
5225;SDS011;2632;51.666;7.146;2022-11-20T02:21:49;3.03;;;2.13;;
5225;SDS011;2632;51.666;7.146;2022-11-20T02:24:20;2.40;;;2.10;;
5225;SDS011;2632;51.666;7.146;2022-11-20T02:29:18;2.97;;;2.30;;
5225;SDS011;2632;51.666;7.146;2022-11-20T02:31:50;2.10;;;1.90;;
5225;SDS011;2632;51.666;7.146;2022-11-20T02:34:17;2.13;;;1.80;;
5225;SDS011;2632;51.666;7.146;2022-11-20T02:36:43;2.47;;;2.13;;
5225;SDS011;2632;51.666;7.146;2022-11-20T02:39:12;1.80;;;1.70;;
5225;SDS011;2632;51.666;7.146;2022-11-20T02:41:43;2.30;;;2.07;;
5225;SDS011;2632;51.666;7.146;2022-11-20T02:44:10;2.03;;;1.73;;
5225;SDS011;2632;51.666;7.146;2022-11-20T02:46:37;2.40;;;2.20;;
5225;SDS011;2632;51.666;7.146;2022-11-20T02:49:04;2.90;;;2.10;;
5225;SDS011;2632;51.666;7.146;2022-11-20T02:51:31;3.23;;;2.10;;
5225;SDS011;2632;51.666;7.146;2022-11-20T02:53:58;4.00;;;2.10;;
5225;SDS011;2632;51.666;7.146;2022-11-20T02:56:25;2.40;;;2.20;;
5225;SDS011;2632;51.666;7.146;2022-11-20T02:58:51;2.70;;;1.90;;
5225;SDS011;2632;51.666;7.146;2022-11-20T03:01:18;3.70;;;2.40;;
5225;SDS011;2632;51.666;7.146;2022-11-20T03:03:45;2.00;;;1.80;;
5225;SDS011;2632;51.666;7.146;2022-11-20T03:06:11;2.57;;;2.10;;
5225;SDS011;2632;51.666;7.146;2022-11-20T03:08:38;2.17;;;1.97;;
5225;SDS011;2632;51.666;7.146;2022-11-20T03:11:05;2.57;;;2.00;;
5225;SDS011;2632;51.666;7.146;2022-11-20T03:13:33;2.20;;;1.80;;
5225;SDS011;2632;51.666;7.146;2022-11-20T03:16:07;2.20;;;2.00;;
5225;SDS011;2632;51.666;7.146;2022-11-20T03:18:38;1.97;;;1.73;;
5225;SDS011;2632;51.666;7.146;2022-11-20T03:21:06;2.90;;;2.00;;
5225;SDS011;2632;51.666;7.146;2022-11-20T03:23:34;2.13;;;1.70;;
5225;SDS011;2632;51.666;7.146;2022-11-20T03:26:12;2.13;;;1.70;;
5225;SDS011;2632;51.666;7.146;2022-11-20T03:28:41;2.57;;;2.00;;
5225;SDS011;2632;51.666;7.146;2022-11-20T03:31:13;2.10;;;1.80;;
5225;SDS011;2632;51.666;7.146;2022-11-20T03:33:42;3.50;;;2.30;;
5225;SDS011;2632;51.666;7.146;2022-11-20T03:36:10;2.10;;;1.87;;
5225;SDS011;2632;51.666;7.146;2022-11-20T03:38:38;2.33;;;2.13;;
5225;SDS011;2632;51.666;7.146;2022-11-20T03:41:06;2.33;;;1.80;;
5225;SDS011;2632;51.666;7.146;2022-11-20T03:43:34;2.00;;;1.50;;
5225;SDS011;2632;51.666;7.146;2022-11-20T03:46:02;2.07;;;1.73;;
5225;SDS011;2632;51.666;7.146;2022-11-20T03:48:29;2.83;;;2.27;;
5225;SDS011;2632;51.666;7.146;2022-11-20T03:53:39;2.90;;;2.03;;
5225;SDS011;2632;51.666;7.146;2022-11-20T03:56:07;2.70;;;2.00;;
5225;SDS011;2632;51.666;7.146;2022-11-20T03:58:35;2.50;;;1.70;;
5225;SDS011;2632;51.666;7.146;2022-11-20T04:01:04;2.87;;;2.20;;
5225;SDS011;2632;51.666;7.146;2022-11-20T04:03:34;2.30;;;1.80;;
5225;SDS011;2632;51.666;7.146;2022-11-20T04:06:02;2.70;;;2.17;;
5225;SDS011;2632;51.666;7.146;2022-11-20T04:08:33;2.00;;;1.80;;
5225;SDS011;2632;51.666;7.146;2022-11-20T04:11:13;2.10;;;1.90;;
5225;SDS011;2632;51.666;7.146;2022-11-20T04:13:41;3.20;;;2.10;;
5225;SDS011;2632;51.666;7.146;2022-11-20T04:16:11;2.33;;;1.63;;
5225;SDS011;2632;51.666;7.146;2022-11-20T04:18:38;2.63;;;2.10;;
5225;SDS011;2632;51.666;7.146;2022-11-20T04:21:05;2.90;;;2.10;;
5225;SDS011;2632;51.666;7.146;2022-11-20T04:23:32;2.00;;;1.67;;
5225;SDS011;2632;51.666;7.146;2022-11-20T04:26:06;3.63;;;2.17;;
5225;SDS011;2632;51.666;7.146;2022-11-20T04:28:34;2.67;;;2.10;;
5225;SDS011;2632;51.666;7.146;2022-11-20T04:31:05;2.30;;;2.10;;
5225;SDS011;2632;51.666;7.146;2022-11-20T04:33:37;2.20;;;2.00;;
5225;SDS011;2632;51.666;7.146;2022-11-20T04:36:10;2.83;;;2.30;;
5225;SDS011;2632;51.666;7.146;2022-11-20T04:38:41;4.03;;;2.03;;
5225;SDS011;2632;51.666;7.146;2022-11-20T04:41:18;3.50;;;2.23;;
5225;SDS011;2632;51.666;7.146;2022-11-20T04:43:46;2.80;;;2.00;;
5225;SDS011;2632;51.666;7.146;2022-11-20T04:46:17;2.47;;;1.60;;
5225;SDS011;2632;51.666;7.146;2022-11-20T04:48:45;1.90;;;1.80;;
5225;SDS011;2632;51.666;7.146;2022-11-20T04:51:13;2.20;;;2.00;;
5225;SDS011;2632;51.666;7.146;2022-11-20T04:53:40;2.90;;;2.27;;
5225;SDS011;2632;51.666;7.146;2022-11-20T04:56:07;1.83;;;1.63;;
5225;SDS011;2632;51.666;7.146;2022-11-20T04:58:35;2.37;;;2.00;;
5225;SDS011;2632;51.666;7.146;2022-11-20T05:01:04;2.80;;;2.30;;
5225;SDS011;2632;51.666;7.146;2022-11-20T05:03:31;2.60;;;2.27;;
5225;SDS011;2632;51.666;7.146;2022-11-20T05:06:01;3.43;;;2.30;;
5225;SDS011;2632;51.666;7.146;2022-11-20T05:08:28;3.03;;;2.30;;
5225;SDS011;2632;51.666;7.146;2022-11-20T05:13:32;2.63;;;2.10;;
5225;SDS011;2632;51.666;7.146;2022-11-20T05:16:02;4.67;;;2.30;;
5225;SDS011;2632;51.666;7.146;2022-11-20T05:18:31;3.73;;;2.30;;
5225;SDS011;2632;51.666;7.146;2022-11-20T05:20:58;2.40;;;2.10;;
5225;SDS011;2632;51.666;7.146;2022-11-20T05:23:25;2.80;;;2.43;;
5225;SDS011;2632;51.666;7.146;2022-11-20T05:25:53;2.13;;;1.93;;
5225;SDS011;2632;51.666;7.146;2022-11-20T05:28:24;2.10;;;1.90;;
5225;SDS011;2632;51.666;7.146;2022-11-20T05:30:51;2.10;;;1.90;;
5225;SDS011;2632;51.666;7.146;2022-11-20T05:33:18;1.93;;;1.70;;
5225;SDS011;2632;51.666;7.146;2022-11-20T05:35:45;1.80;;;1.70;;
5225;SDS011;2632;51.666;7.146;2022-11-20T05:38:11;2.47;;;1.70;;
5225;SDS011;2632;51.666;7.146;2022-11-20T05:40:38;2.40;;;1.80;;
5225;SDS011;2632;51.666;7.146;2022-11-20T05:43:05;2.57;;;2.13;;
5225;SDS011;2632;51.666;7.146;2022-11-20T05:45:31;2.50;;;2.30;;
5225;SDS011;2632;51.666;7.146;2022-11-20T05:47:58;3.27;;;2.10;;
5225;SDS011;2632;51.666;7.146;2022-11-20T05:50:28;2.90;;;2.60;;
5225;SDS011;2632;51.666;7.146;2022-11-20T05:52:57;2.90;;;2.33;;
5225;SDS011;2632;51.666;7.146;2022-11-20T05:55:26;3.50;;;2.07;;
5225;SDS011;2632;51.666;7.146;2022-11-20T05:57:53;2.77;;;1.70;;
5225;SDS011;2632;51.666;7.146;2022-11-20T06:00:20;2.10;;;1.90;;
5225;SDS011;2632;51.666;7.146;2022-11-20T06:02:47;4.37;;;2.70;;
5225;SDS011;2632;51.666;7.146;2022-11-20T06:05:14;2.27;;;2.07;;
5225;SDS011;2632;51.666;7.146;2022-11-20T06:07:40;2.67;;;1.87;;
5225;SDS011;2632;51.666;7.146;2022-11-20T06:10:07;3.60;;;2.10;;
5225;SDS011;2632;51.666;7.146;2022-11-20T06:12:34;3.23;;;2.30;;
5225;SDS011;2632;51.666;7.146;2022-11-20T06:15:01;2.50;;;1.97;;
5225;SDS011;2632;51.666;7.146;2022-11-20T06:17:27;3.00;;;2.30;;
5225;SDS011;2632;51.666;7.146;2022-11-20T06:19:54;3.07;;;2.53;;
5225;SDS011;2632;51.666;7.146;2022-11-20T06:22:20;2.70;;;2.20;;
5225;SDS011;2632;51.666;7.146;2022-11-20T06:24:47;2.87;;;2.47;;
5225;SDS011;2632;51.666;7.146;2022-11-20T06:27:14;2.80;;;2.10;;
5225;SDS011;2632;51.666;7.146;2022-11-20T06:29:41;2.43;;;2.23;;
5225;SDS011;2632;51.666;7.146;2022-11-20T06:32:07;4.67;;;3.30;;
5225;SDS011;2632;51.666;7.146;2022-11-20T06:34:34;3.40;;;2.50;;
5225;SDS011;2632;51.666;7.146;2022-11-20T06:37:01;2.87;;;2.20;;
5225;SDS011;2632;51.666;7.146;2022-11-20T06:39:27;3.87;;;2.43;;
5225;SDS011;2632;51.666;7.146;2022-11-20T06:41:54;8.73;;;2.40;;
5225;SDS011;2632;51.666;7.146;2022-11-20T06:44:24;3.77;;;2.57;;
5225;SDS011;2632;51.666;7.146;2022-11-20T06:46:51;2.47;;;2.27;;
5225;SDS011;2632;51.666;7.146;2022-11-20T06:49:17;6.87;;;3.00;;
5225;SDS011;2632;51.666;7.146;2022-11-20T06:51:44;3.37;;;2.47;;
5225;SDS011;2632;51.666;7.146;2022-11-20T06:54:11;2.50;;;2.30;;
5225;SDS011;2632;51.666;7.146;2022-11-20T06:56:38;5.30;;;2.20;;
5225;SDS011;2632;51.666;7.146;2022-11-20T06:59:05;3.80;;;2.47;;
5225;SDS011;2632;51.666;7.146;2022-11-20T07:01:32;2.63;;;2.33;;
5225;SDS011;2632;51.666;7.146;2022-11-20T07:03:59;2.30;;;2.00;;
5225;SDS011;2632;51.666;7.146;2022-11-20T07:06:25;2.20;;;2.00;;
5225;SDS011;2632;51.666;7.146;2022-11-20T07:08:52;3.43;;;2.33;;
5225;SDS011;2632;51.666;7.146;2022-11-20T07:11:18;4.40;;;2.70;;
5225;SDS011;2632;51.666;7.146;2022-11-20T07:13:45;3.60;;;2.47;;
5225;SDS011;2632;51.666;7.146;2022-11-20T07:16:12;2.53;;;2.30;;
5225;SDS011;2632;51.666;7.146;2022-11-20T07:18:38;3.63;;;2.40;;
5225;SDS011;2632;51.666;7.146;2022-11-20T07:21:06;3.73;;;2.20;;
5225;SDS011;2632;51.666;7.146;2022-11-20T07:23:36;3.43;;;2.50;;
5225;SDS011;2632;51.666;7.146;2022-11-20T07:26:03;3.60;;;2.50;;
5225;SDS011;2632;51.666;7.146;2022-11-20T07:28:34;3.57;;;2.60;;
5225;SDS011;2632;51.666;7.146;2022-11-20T07:31:02;4.17;;;2.40;;
5225;SDS011;2632;51.666;7.146;2022-11-20T07:33:29;6.23;;;2.73;;
5225;SDS011;2632;51.666;7.146;2022-11-20T07:35:58;10.30;;;2.60;;
5225;SDS011;2632;51.666;7.146;2022-11-20T07:38:25;20.73;;;12.47;;
5225;SDS011;2632;51.666;7.146;2022-11-20T07:40:58;20.77;;;13.27;;
5225;SDS011;2632;51.666;7.146;2022-11-20T07:43:27;17.10;;;9.47;;
5225;SDS011;2632;51.666;7.146;2022-11-20T07:45:57;16.13;;;9.40;;
5225;SDS011;2632;51.666;7.146;2022-11-20T07:48:25;13.97;;;8.33;;
5225;SDS011;2632;51.666;7.146;2022-11-20T07:50:56;11.00;;;7.30;;
5225;SDS011;2632;51.666;7.146;2022-11-20T07:53:23;12.17;;;7.47;;
5225;SDS011;2632;51.666;7.146;2022-11-20T07:55:50;10.53;;;6.67;;
5225;SDS011;2632;51.666;7.146;2022-11-20T07:58:18;9.30;;;7.00;;
5225;SDS011;2632;51.666;7.146;2022-11-20T08:00:46;8.50;;;6.40;;
5225;SDS011;2632;51.666;7.146;2022-11-20T08:03:13;10.27;;;6.87;;
5225;SDS011;2632;51.666;7.146;2022-11-20T08:05:39;9.23;;;6.40;;
5225;SDS011;2632;51.666;7.146;2022-11-20T08:08:06;7.57;;;5.73;;
5225;SDS011;2632;51.666;7.146;2022-11-20T08:10:33;8.10;;;5.33;;
5225;SDS011;2632;51.666;7.146;2022-11-20T08:13:00;9.90;;;6.07;;
5225;SDS011;2632;51.666;7.146;2022-11-20T08:15:48;8.90;;;5.50;;
5225;SDS011;2632;51.666;7.146;2022-11-20T08:18:18;8.97;;;5.70;;
5225;SDS011;2632;51.666;7.146;2022-11-20T08:21:03;8.50;;;5.17;;
5225;SDS011;2632;51.666;7.146;2022-11-20T08:23:30;10.87;;;7.17;;
5225;SDS011;2632;51.666;7.146;2022-11-20T08:25:57;8.13;;;5.23;;
5225;SDS011;2632;51.666;7.146;2022-11-20T08:28:24;7.23;;;5.70;;
5225;SDS011;2632;51.666;7.146;2022-11-20T08:30:50;7.80;;;5.30;;
5225;SDS011;2632;51.666;7.146;2022-11-20T08:33:17;8.00;;;5.20;;
5225;SDS011;2632;51.666;7.146;2022-11-20T08:35:44;5.97;;;4.43;;
5225;SDS011;2632;51.666;7.146;2022-11-20T08:38:11;7.20;;;5.20;;
5225;SDS011;2632;51.666;7.146;2022-11-20T08:40:37;5.70;;;4.73;;
5225;SDS011;2632;51.666;7.146;2022-11-20T08:43:04;7.03;;;5.20;;
5225;SDS011;2632;51.666;7.146;2022-11-20T08:45:30;9.13;;;5.03;;
5225;SDS011;2632;51.666;7.146;2022-11-20T08:48:00;7.13;;;4.80;;
5225;SDS011;2632;51.666;7.146;2022-11-20T08:50:28;5.53;;;4.77;;
5225;SDS011;2632;51.666;7.146;2022-11-20T08:53:04;7.20;;;4.90;;
5225;SDS011;2632;51.666;7.146;2022-11-20T08:55:31;6.67;;;4.70;;
5225;SDS011;2632;51.666;7.146;2022-11-20T08:57:58;6.83;;;4.83;;
5225;SDS011;2632;51.666;7.146;2022-11-20T09:00:28;7.40;;;5.33;;
5225;SDS011;2632;51.666;7.146;2022-11-20T09:02:55;6.10;;;5.10;;
5225;SDS011;2632;51.666;7.146;2022-11-20T09:05:21;7.10;;;4.80;;
5225;SDS011;2632;51.666;7.146;2022-11-20T09:07:48;7.83;;;4.50;;
5225;SDS011;2632;51.666;7.146;2022-11-20T09:10:14;7.27;;;4.60;;
5225;SDS011;2632;51.666;7.146;2022-11-20T09:12:50;16.43;;;10.17;;
5225;SDS011;2632;51.666;7.146;2022-11-20T09:15:21;9.60;;;5.67;;
5225;SDS011;2632;51.666;7.146;2022-11-20T09:20:19;7.90;;;4.50;;
5225;SDS011;2632;51.666;7.146;2022-11-20T09:22:45;6.47;;;4.90;;
5225;SDS011;2632;51.666;7.146;2022-11-20T09:25:12;7.63;;;4.00;;
5225;SDS011;2632;51.666;7.146;2022-11-20T09:27:38;8.90;;;4.80;;
5225;SDS011;2632;51.666;7.146;2022-11-20T09:30:07;6.67;;;4.10;;
5225;SDS011;2632;51.666;7.146;2022-11-20T09:32:34;9.40;;;4.90;;
5225;SDS011;2632;51.666;7.146;2022-11-20T09:35:01;25.00;;;14.27;;
5225;SDS011;2632;51.666;7.146;2022-11-20T09:37:28;27.80;;;16.13;;
5225;SDS011;2632;51.666;7.146;2022-11-20T09:39:55;26.93;;;16.00;;
5225;SDS011;2632;51.666;7.146;2022-11-20T09:42:37;25.20;;;13.37;;
5225;SDS011;2632;51.666;7.146;2022-11-20T09:48:00;30.97;;;12.73;;
5225;SDS011;2632;51.666;7.146;2022-11-20T09:53:34;18.90;;;11.20;;
5225;SDS011;2632;51.666;7.146;2022-11-20T09:56:22;20.20;;;10.43;;
5225;SDS011;2632;51.666;7.146;2022-11-20T09:58:50;18.60;;;9.60;;
5225;SDS011;2632;51.666;7.146;2022-11-20T10:01:26;25.10;;;12.10;;
5225;SDS011;2632;51.666;7.146;2022-11-20T10:04:01;15.73;;;9.50;;
5225;SDS011;2632;51.666;7.146;2022-11-20T10:06:39;20.63;;;9.87;;
5225;SDS011;2632;51.666;7.146;2022-11-20T10:09:39;16.97;;;9.17;;
5225;SDS011;2632;51.666;7.146;2022-11-20T10:12:21;19.60;;;9.40;;
5225;SDS011;2632;51.666;7.146;2022-11-20T10:17:58;14.10;;;8.40;;
5225;SDS011;2632;51.666;7.146;2022-11-20T10:29:59;16.40;;;8.60;;
5225;SDS011;2632;51.666;7.146;2022-11-20T10:32:32;13.60;;;8.10;;
5225;SDS011;2632;51.666;7.146;2022-11-20T10:35:20;13.30;;;7.63;;
5225;SDS011;2632;51.666;7.146;2022-11-20T10:38:02;15.67;;;7.53;;
5225;SDS011;2632;51.666;7.146;2022-11-20T10:40:53;13.20;;;7.93;;
5225;SDS011;2632;51.666;7.146;2022-11-20T10:43:46;13.00;;;7.17;;
5225;SDS011;2632;51.666;7.146;2022-11-20T10:46:17;15.57;;;7.57;;
5225;SDS011;2632;51.666;7.146;2022-11-20T10:48:48;16.63;;;8.00;;
5225;SDS011;2632;51.666;7.146;2022-11-20T10:53:58;13.53;;;7.40;;
5225;SDS011;2632;51.666;7.146;2022-11-20T11:02:22;11.63;;;7.03;;
5225;SDS011;2632;51.666;7.146;2022-11-20T11:04:51;14.30;;;7.60;;
5225;SDS011;2632;51.666;7.146;2022-11-20T11:07:28;16.37;;;6.60;;
5225;SDS011;2632;51.666;7.146;2022-11-20T11:09:59;11.80;;;7.07;;
5225;SDS011;2632;51.666;7.146;2022-11-20T11:12:28;11.50;;;7.07;;
5225;SDS011;2632;51.666;7.146;2022-11-20T11:14:55;13.43;;;7.70;;
5225;SDS011;2632;51.666;7.146;2022-11-20T11:17:27;10.80;;;6.97;;
5225;SDS011;2632;51.666;7.146;2022-11-20T11:22:34;11.67;;;6.57;;
5225;SDS011;2632;51.666;7.146;2022-11-20T11:25:21;13.20;;;7.07;;
5225;SDS011;2632;51.666;7.146;2022-11-20T11:27:50;11.77;;;6.53;;
5225;SDS011;2632;51.666;7.146;2022-11-20T11:30:19;19.70;;;7.03;;
5225;SDS011;2632;51.666;7.146;2022-11-20T11:32:46;10.67;;;6.77;;
5225;SDS011;2632;51.666;7.146;2022-11-20T11:37:54;10.23;;;6.70;;
5225;SDS011;2632;51.666;7.146;2022-11-20T11:40:30;11.53;;;6.60;;
5225;SDS011;2632;51.666;7.146;2022-11-20T11:42:59;12.50;;;6.07;;
5225;SDS011;2632;51.666;7.146;2022-11-20T11:45:30;9.47;;;6.67;;
5225;SDS011;2632;51.666;7.146;2022-11-20T11:47:57;11.70;;;6.53;;
5225;SDS011;2632;51.666;7.146;2022-11-20T11:50:27;10.70;;;6.73;;
5225;SDS011;2632;51.666;7.146;2022-11-20T11:55:49;11.67;;;6.80;;
5225;SDS011;2632;51.666;7.146;2022-11-20T12:06:39;10.10;;;6.00;;
5225;SDS011;2632;51.666;7.146;2022-11-20T12:09:10;8.17;;;5.30;;
5225;SDS011;2632;51.666;7.146;2022-11-20T12:11:49;10.13;;;5.67;;
5225;SDS011;2632;51.666;7.146;2022-11-20T12:14:27;11.03;;;7.10;;
5225;SDS011;2632;51.666;7.146;2022-11-20T12:17:03;11.43;;;6.77;;
5225;SDS011;2632;51.666;7.146;2022-11-20T12:33:59;63.10;;;25.93;;
5225;SDS011;2632;51.666;7.146;2022-11-20T12:39:26;69.00;;;26.73;;
5225;SDS011;2632;51.666;7.146;2022-11-20T12:44:57;65.43;;;27.07;;
5225;SDS011;2632;51.666;7.146;2022-11-20T12:50:12;67.47;;;27.97;;
5225;SDS011;2632;51.666;7.146;2022-11-20T12:52:48;59.90;;;26.33;;
5225;SDS011;2632;51.666;7.146;2022-11-20T13:01:19;61.97;;;25.43;;
5225;SDS011;2632;51.666;7.146;2022-11-20T13:04:00;65.70;;;26.73;;
5225;SDS011;2632;51.666;7.146;2022-11-20T13:06:53;62.90;;;25.90;;
5225;SDS011;2632;51.666;7.146;2022-11-20T13:09:20;61.00;;;25.57;;
5225;SDS011;2632;51.666;7.146;2022-11-20T13:12:00;54.97;;;25.43;;
5225;SDS011;2632;51.666;7.146;2022-11-20T13:15:03;63.00;;;28.47;;
5225;SDS011;2632;51.666;7.146;2022-11-20T13:17:34;58.30;;;24.30;;
5225;SDS011;2632;51.666;7.146;2022-11-20T13:20:17;67.37;;;26.40;;
5225;SDS011;2632;51.666;7.146;2022-11-20T13:22:49;63.37;;;25.53;;
5225;SDS011;2632;51.666;7.146;2022-11-20T13:27:55;63.47;;;25.40;;
5225;SDS011;2632;51.666;7.146;2022-11-20T13:30:24;54.83;;;23.50;;
5225;SDS011;2632;51.666;7.146;2022-11-20T13:32:56;58.70;;;25.43;;
5225;SDS011;2632;51.666;7.146;2022-11-20T13:35:28;51.87;;;22.57;;
5225;SDS011;2632;51.666;7.146;2022-11-20T13:40:30;58.13;;;23.97;;
5225;SDS011;2632;51.666;7.146;2022-11-20T13:45:36;52.07;;;23.40;;
5225;SDS011;2632;51.666;7.146;2022-11-20T13:48:18;54.27;;;22.80;;
5225;SDS011;2632;51.666;7.146;2022-11-20T14:02:15;44.73;;;21.10;;
5225;SDS011;2632;51.666;7.146;2022-11-20T14:04:48;51.87;;;20.97;;
5225;SDS011;2632;51.666;7.146;2022-11-20T14:07:17;57.40;;;21.00;;
5225;SDS011;2632;51.666;7.146;2022-11-20T14:10:04;47.30;;;20.83;;
5225;SDS011;2632;51.666;7.146;2022-11-20T14:12:33;50.57;;;19.90;;
5225;SDS011;2632;51.666;7.146;2022-11-20T14:15:00;45.73;;;19.30;;
5225;SDS011;2632;51.666;7.146;2022-11-20T14:17:33;47.23;;;19.40;;
5225;SDS011;2632;51.666;7.146;2022-11-20T14:20:04;40.33;;;19.43;;
5225;SDS011;2632;51.666;7.146;2022-11-20T14:22:38;40.93;;;19.00;;
5225;SDS011;2632;51.666;7.146;2022-11-20T14:25:06;39.93;;;18.73;;
5225;SDS011;2632;51.666;7.146;2022-11-20T14:27:50;49.70;;;20.50;;
5225;SDS011;2632;51.666;7.146;2022-11-20T14:30:20;40.47;;;18.00;;
5225;SDS011;2632;51.666;7.146;2022-11-20T14:32:49;44.33;;;18.53;;
5225;SDS011;2632;51.666;7.146;2022-11-20T14:35:27;39.00;;;17.20;;
5225;SDS011;2632;51.666;7.146;2022-11-20T14:37:55;25.90;;;13.30;;
5225;SDS011;2632;51.666;7.146;2022-11-20T14:42:51;29.90;;;13.40;;
5225;SDS011;2632;51.666;7.146;2022-11-20T14:45:18;24.37;;;13.10;;
5225;SDS011;2632;51.666;7.146;2022-11-20T14:47:46;25.60;;;13.37;;
5225;SDS011;2632;51.666;7.146;2022-11-20T14:50:24;24.47;;;11.93;;
5225;SDS011;2632;51.666;7.146;2022-11-20T14:52:54;27.87;;;11.93;;
5225;SDS011;2632;51.666;7.146;2022-11-20T14:55:26;26.53;;;11.50;;
5225;SDS011;2632;51.666;7.146;2022-11-20T14:58:05;22.53;;;10.87;;
5225;SDS011;2632;51.666;7.146;2022-11-20T15:00:33;28.33;;;11.37;;
5225;SDS011;2632;51.666;7.146;2022-11-20T15:03:00;21.03;;;11.20;;
5225;SDS011;2632;51.666;7.146;2022-11-20T15:05:46;24.97;;;10.63;;
5225;SDS011;2632;51.666;7.146;2022-11-20T15:08:15;18.73;;;9.80;;
5225;SDS011;2632;51.666;7.146;2022-11-20T15:10:46;21.20;;;11.40;;
5225;SDS011;2632;51.666;7.146;2022-11-20T15:13:34;21.87;;;11.10;;
5225;SDS011;2632;51.666;7.146;2022-11-20T15:16:04;24.53;;;10.70;;
5225;SDS011;2632;51.666;7.146;2022-11-20T15:18:40;24.10;;;10.03;;
5225;SDS011;2632;51.666;7.146;2022-11-20T15:21:10;22.40;;;10.17;;
5225;SDS011;2632;51.666;7.146;2022-11-20T15:23:38;21.93;;;10.80;;
5225;SDS011;2632;51.666;7.146;2022-11-20T15:26:05;23.40;;;10.03;;
5225;SDS011;2632;51.666;7.146;2022-11-20T15:28:44;22.20;;;9.97;;
5225;SDS011;2632;51.666;7.146;2022-11-20T15:31:14;19.40;;;9.87;;
5225;SDS011;2632;51.666;7.146;2022-11-20T15:33:45;21.73;;;9.20;;
5225;SDS011;2632;51.666;7.146;2022-11-20T15:36:12;15.27;;;8.73;;
5225;SDS011;2632;51.666;7.146;2022-11-20T15:38:39;18.80;;;9.83;;
5225;SDS011;2632;51.666;7.146;2022-11-20T15:41:06;22.40;;;11.60;;
5225;SDS011;2632;51.666;7.146;2022-11-20T15:43:33;16.80;;;9.13;;
5225;SDS011;2632;51.666;7.146;2022-11-20T15:46:00;20.00;;;8.67;;
5225;SDS011;2632;51.666;7.146;2022-11-20T15:48:38;18.73;;;8.80;;
5225;SDS011;2632;51.666;7.146;2022-11-20T15:53:58;16.40;;;8.43;;
5225;SDS011;2632;51.666;7.146;2022-11-20T15:56:25;20.03;;;8.93;;
5225;SDS011;2632;51.666;7.146;2022-11-20T15:58:52;23.63;;;8.70;;
5225;SDS011;2632;51.666;7.146;2022-11-20T16:01:20;19.03;;;8.63;;
5225;SDS011;2632;51.666;7.146;2022-11-20T16:03:48;18.23;;;7.87;;
5225;SDS011;2632;51.666;7.146;2022-11-20T16:06:15;13.67;;;7.40;;
5225;SDS011;2632;51.666;7.146;2022-11-20T16:08:42;18.40;;;8.80;;
5225;SDS011;2632;51.666;7.146;2022-11-20T16:11:12;18.10;;;7.37;;
5225;SDS011;2632;51.666;7.146;2022-11-20T16:13:40;17.07;;;7.83;;
5225;SDS011;2632;51.666;7.146;2022-11-20T16:16:33;18.47;;;8.80;;
5225;SDS011;2632;51.666;7.146;2022-11-20T16:19:01;20.60;;;8.00;;
5225;SDS011;2632;51.666;7.146;2022-11-20T16:21:27;15.37;;;8.23;;
5225;SDS011;2632;51.666;7.146;2022-11-20T16:24:02;16.77;;;8.60;;
5225;SDS011;2632;51.666;7.146;2022-11-20T16:26:31;25.40;;;8.47;;
5225;SDS011;2632;51.666;7.146;2022-11-20T16:28:59;19.03;;;7.30;;
5225;SDS011;2632;51.666;7.146;2022-11-20T16:31:27;18.17;;;8.60;;
5225;SDS011;2632;51.666;7.146;2022-11-20T16:33:54;14.60;;;7.47;;
5225;SDS011;2632;51.666;7.146;2022-11-20T16:36:23;17.37;;;8.50;;
5225;SDS011;2632;51.666;7.146;2022-11-20T16:38:51;16.37;;;7.37;;
5225;SDS011;2632;51.666;7.146;2022-11-20T16:41:22;19.23;;;7.50;;
5225;SDS011;2632;51.666;7.146;2022-11-20T16:43:50;15.73;;;7.23;;
5225;SDS011;2632;51.666;7.146;2022-11-20T16:46:21;15.50;;;7.60;;
5225;SDS011;2632;51.666;7.146;2022-11-20T16:51:29;16.13;;;7.63;;
5225;SDS011;2632;51.666;7.146;2022-11-20T16:54:06;19.60;;;7.67;;
5225;SDS011;2632;51.666;7.146;2022-11-20T16:56:33;18.40;;;7.80;;
5225;SDS011;2632;51.666;7.146;2022-11-20T16:59:00;12.87;;;7.00;;
5225;SDS011;2632;51.666;7.146;2022-11-20T17:01:28;16.37;;;7.80;;
5225;SDS011;2632;51.666;7.146;2022-11-20T17:06:24;15.27;;;6.93;;
5225;SDS011;2632;51.666;7.146;2022-11-20T17:08:52;13.20;;;6.90;;
5225;SDS011;2632;51.666;7.146;2022-11-20T17:11:20;14.03;;;6.87;;
5225;SDS011;2632;51.666;7.146;2022-11-20T17:13:47;15.20;;;6.97;;
5225;SDS011;2632;51.666;7.146;2022-11-20T17:16:15;13.17;;;7.17;;
5225;SDS011;2632;51.666;7.146;2022-11-20T17:18:44;15.40;;;7.50;;
5225;SDS011;2632;51.666;7.146;2022-11-20T17:21:11;14.37;;;7.13;;
5225;SDS011;2632;51.666;7.146;2022-11-20T17:23:42;16.00;;;6.93;;
5225;SDS011;2632;51.666;7.146;2022-11-20T17:26:10;13.13;;;6.87;;